METAR Data
IDs: Format: Raw Decoded Include TAF

Data at: 1230 UTC 23 Mar 2019

KMQY 231156Z 00000KT 10SM CLR 01/M03 A3029 RMK AO2 SLP235 T00061033 10061 20006 53023